createdAt,value
2022-09-18T00:01:38.651Z,11.50
2022-09-18T00:04:11.248Z,11.50
2022-09-18T00:06:46.959Z,11.50
2022-09-18T00:09:18.789Z,11.50
2022-09-18T00:11:53.176Z,11.50
2022-09-18T00:14:26.159Z,11.50
2022-09-18T00:16:59.353Z,11.60
2022-09-18T00:19:31.084Z,11.60
2022-09-18T00:22:06.720Z,11.60
2022-09-18T00:24:36.771Z,11.60
2022-09-18T00:27:09.670Z,11.70
2022-09-18T00:29:47.203Z,11.70
2022-09-18T00:32:17.272Z,11.70
2022-09-18T00:34:49.675Z,11.70
2022-09-18T00:37:22.902Z,11.60
2022-09-18T00:39:52.973Z,11.50
2022-09-18T00:42:26.216Z,11.50
2022-09-18T00:44:56.254Z,11.50
2022-09-18T00:47:33.083Z,11.50
2022-09-18T00:50:15.774Z,11.40
2022-09-18T00:53:02.107Z,11.40
2022-09-18T00:55:38.161Z,11.50
2022-09-18T00:58:15.251Z,11.50
2022-09-18T01:00:45.339Z,11.60
2022-09-18T01:03:15.685Z,11.60
2022-09-18T01:06:13.784Z,11.60
2022-09-18T01:09:02.138Z,11.60
2022-09-18T01:11:49.575Z,11.50
2022-09-18T01:14:36.103Z,11.60
2022-09-18T01:17:26.321Z,11.60
2022-09-18T01:20:36.436Z,11.60
2022-09-18T01:23:38.991Z,11.60
2022-09-18T01:26:37.362Z,11.50
2022-09-18T01:29:26.583Z,11.50
2022-09-18T01:32:20.484Z,11.50
2022-09-18T01:35:14.036Z,11.40
2022-09-18T01:38:06.174Z,11.50
2022-09-18T01:40:43.264Z,11.50
2022-09-18T01:43:19.720Z,11.50
2022-09-18T01:45:58.548Z,11.50
2022-09-18T01:48:35.528Z,11.50
2022-09-18T01:51:13.706Z,11.50
2022-09-18T01:53:49.879Z,11.50
2022-09-18T01:56:28.581Z,11.60
2022-09-18T01:59:04.963Z,11.60
2022-09-18T02:01:43.422Z,11.70
2022-09-18T02:04:20.160Z,11.70
2022-09-18T02:07:03.170Z,11.70
2022-09-18T02:09:34.239Z,11.70
2022-09-18T02:12:11.868Z,11.60
2022-09-18T02:14:49.212Z,11.50
2022-09-18T02:17:29.951Z,11.50
2022-09-18T02:20:05.315Z,11.50
2022-09-18T02:22:37.860Z,11.60
2022-09-18T02:25:14.855Z,11.60
2022-09-18T02:27:45.878Z,11.60
2022-09-18T02:30:16.782Z,11.50
2022-09-18T02:32:49.730Z,11.50
2022-09-18T02:35:24.203Z,11.50
2022-09-18T02:38:08.682Z,11.50
2022-09-18T02:40:56.600Z,11.50
2022-09-18T02:43:50.203Z,11.50
2022-09-18T02:46:35.239Z,11.40
2022-09-18T02:49:17.432Z,11.50
2022-09-18T02:51:57.553Z,11.40
2022-09-18T02:54:39.895Z,11.50
2022-09-18T02:57:18.391Z,11.60
2022-09-18T02:59:56.704Z,11.60
2022-09-18T03:02:28.807Z,11.40
2022-09-18T03:05:01.568Z,11.40
2022-09-18T03:07:34.695Z,11.50
2022-09-18T03:10:05.047Z,11.60
2022-09-18T03:12:35.213Z,11.50
2022-09-18T03:15:05.944Z,11.50
2022-09-18T03:17:41.204Z,11.40
2022-09-18T03:20:14.304Z,11.30
2022-09-18T03:22:44.340Z,11.30
2022-09-18T03:25:15.925Z,11.30
2022-09-18T03:27:48.761Z,11.40
2022-09-18T03:30:19.046Z,11.40
2022-09-18T03:32:49.121Z,11.50
2022-09-18T03:35:22.048Z,11.50
2022-09-18T03:37:52.248Z,11.50
2022-09-18T03:40:25.301Z,11.60
2022-09-18T03:42:55.444Z,11.50
2022-09-18T03:45:25.515Z,11.50
2022-09-18T03:47:55.771Z,11.50
2022-09-18T03:50:30.791Z,11.40
2022-09-18T03:53:01.151Z,11.40
2022-09-18T03:55:31.191Z,11.50
2022-09-18T03:58:03.887Z,11.40
2022-09-18T04:00:33.969Z,11.30
2022-09-18T04:03:07.561Z,11.40
2022-09-18T04:05:40.518Z,11.40
2022-09-18T04:08:10.533Z,11.40
2022-09-18T04:10:43.352Z,11.50
2022-09-18T04:13:13.432Z,11.70
2022-09-18T04:15:45.240Z,11.60
2022-09-18T04:18:15.373Z,11.60
2022-09-18T04:20:48.240Z,11.60
2022-09-18T04:23:20.756Z,11.60
2022-09-18T04:25:53.562Z,11.50
2022-09-18T04:28:30.904Z,11.60
2022-09-18T04:31:01.134Z,11.50
2022-09-18T04:33:31.290Z,11.50
2022-09-18T04:36:04.465Z,11.50
2022-09-18T04:38:34.584Z,11.30
2022-09-18T04:41:07.858Z,11.30
2022-09-18T04:43:38.018Z,11.20
2022-09-18T04:46:09.618Z,11.20
2022-09-18T04:48:42.242Z,11.30
2022-09-18T04:51:21.151Z,11.40
2022-09-18T04:53:51.473Z,11.40
2022-09-18T04:56:21.503Z,11.40
2022-09-18T04:58:51.739Z,11.40
2022-09-18T05:01:22.345Z,11.50
2022-09-18T05:03:52.733Z,11.50
2022-09-18T05:06:25.465Z,11.50
2022-09-18T05:08:55.589Z,11.50
2022-09-18T05:11:25.658Z,11.50
2022-09-18T05:13:57.004Z,11.50
2022-09-18T05:16:27.515Z,11.50
2022-09-18T05:18:57.732Z,11.70
2022-09-18T05:21:33.377Z,11.70
2022-09-18T05:24:03.607Z,11.80
2022-09-18T05:26:33.830Z,11.70
2022-09-18T05:29:03.901Z,11.80
2022-09-18T05:31:33.976Z,11.80
2022-09-18T05:34:04.268Z,11.70
2022-09-18T05:36:37.099Z,11.70
2022-09-18T05:39:12.161Z,11.60
2022-09-18T05:41:45.568Z,11.70
2022-09-18T05:44:27.872Z,11.80
2022-09-18T05:46:58.008Z,11.70
2022-09-18T05:49:28.332Z,11.70
2022-09-18T05:52:00.933Z,11.60
2022-09-18T05:54:36.725Z,11.70
2022-09-18T05:57:07.103Z,11.70
2022-09-18T05:59:37.173Z,11.80
2022-09-18T06:02:08.018Z,11.90
2022-09-18T06:04:38.228Z,11.90
2022-09-18T06:07:20.075Z,11.90
2022-09-18T06:09:50.552Z,11.90
2022-09-18T06:12:25.917Z,11.90
2022-09-18T06:14:55.972Z,11.80
2022-09-18T06:17:28.352Z,11.80
2022-09-18T06:19:59.960Z,11.80
2022-09-18T06:22:34.116Z,11.80
2022-09-18T06:25:04.357Z,12.00
2022-09-18T06:27:34.456Z,12.00
2022-09-18T06:30:06.633Z,12.10
2022-09-18T06:32:36.718Z,12.30
2022-09-18T06:35:07.865Z,12.40
2022-09-18T06:37:46.060Z,12.50
2022-09-18T06:40:16.408Z,12.60
2022-09-18T06:42:49.367Z,12.80
2022-09-18T06:45:29.220Z,13.20
2022-09-18T06:48:03.788Z,13.20
2022-09-18T06:50:36.853Z,13.40
2022-09-18T06:53:12.917Z,13.70
2022-09-18T06:55:43.129Z,13.80
2022-09-18T06:58:13.135Z,13.80
2022-09-18T07:00:43.308Z,14.00
2022-09-18T07:03:16.638Z,13.90
2022-09-18T07:05:48.133Z,13.70
2022-09-18T07:08:20.776Z,13.50
2022-09-18T07:10:56.491Z,13.40
2022-09-18T07:13:29.115Z,13.30
2022-09-18T07:15:59.430Z,13.10
2022-09-18T07:18:29.644Z,13.20
2022-09-18T07:21:03.222Z,13.20
2022-09-18T07:23:38.800Z,13.00
2022-09-18T07:26:09.278Z,13.10
2022-09-18T07:28:40.127Z,13.20
2022-09-18T07:31:10.256Z,13.50
2022-09-18T07:33:40.637Z,13.80
2022-09-18T07:36:10.919Z,13.70
2022-09-18T07:38:43.743Z,13.80
2022-09-18T07:41:13.879Z,14.00
2022-09-18T07:43:43.945Z,14.00
2022-09-18T07:46:14.270Z,13.90
2022-09-18T07:51:33.540Z,14.20
2022-09-18T07:54:06.392Z,14.10
2022-09-18T07:56:36.486Z,13.80
2022-09-18T07:59:07.588Z,13.70
2022-09-18T08:01:43.720Z,13.90
2022-09-18T08:04:17.086Z,13.60
2022-09-18T08:06:55.533Z,13.40
2022-09-18T08:09:28.188Z,13.70
2022-09-18T08:11:58.616Z,13.70
2022-09-18T08:14:29.246Z,13.60
2022-09-18T08:17:02.731Z,13.50
2022-09-18T08:19:32.812Z,13.50
2022-09-18T08:22:02.885Z,13.30
2022-09-18T08:24:35.757Z,13.40
2022-09-18T08:27:08.903Z,13.50
2022-09-18T08:29:43.639Z,13.50
2022-09-18T08:32:13.727Z,13.60
2022-09-18T08:34:43.774Z,13.90
2022-09-18T08:37:13.877Z,14.30
2022-09-18T08:39:46.511Z,14.60
2022-09-18T08:42:30.352Z,14.60
2022-09-18T08:45:11.657Z,15.00
2022-09-18T08:47:49.004Z,15.80
2022-09-18T08:50:26.540Z,15.70
2022-09-18T08:53:08.070Z,15.60
2022-09-18T08:55:47.590Z,16.20
2022-09-18T08:58:23.067Z,16.30
2022-09-18T09:01:02.625Z,17.30
2022-09-18T09:03:50.379Z,18.50
2022-09-18T09:06:44.134Z,19.30
2022-09-18T09:09:37.790Z,20.30
2022-09-18T09:12:29.292Z,19.30
2022-09-18T09:15:21.811Z,18.00
2022-09-18T09:18:20.611Z,16.70
2022-09-18T09:20:56.748Z,16.50
2022-09-18T09:23:51.734Z,16.10
2022-09-18T09:26:25.800Z,15.40
2022-09-18T09:29:05.959Z,15.00
2022-09-18T09:31:50.769Z,14.90
2022-09-18T09:34:28.421Z,14.70
2022-09-18T09:37:12.412Z,14.70
2022-09-18T09:39:48.349Z,14.70
2022-09-18T09:42:25.895Z,14.80
2022-09-18T09:45:06.495Z,14.90
2022-09-18T09:47:46.483Z,14.90
2022-09-18T09:50:43.083Z,14.80
2022-09-18T09:53:16.412Z,14.50
2022-09-18T09:56:02.959Z,14.80
2022-09-18T09:58:52.964Z,15.00
2022-09-18T10:01:33.043Z,14.60
2022-09-18T10:04:25.104Z,14.70
2022-09-18T10:07:04.548Z,14.90
2022-09-18T10:09:49.363Z,15.00
2022-09-18T10:12:42.665Z,14.80
2022-09-18T10:15:22.112Z,14.80
2022-09-18T10:18:03.404Z,14.70
2022-09-18T10:20:35.973Z,14.50
2022-09-18T10:23:17.628Z,14.20
2022-09-18T10:25:55.274Z,14.10
2022-09-18T10:28:29.724Z,14.10
2022-09-18T10:31:04.233Z,14.30
2022-09-18T10:33:43.544Z,14.50
2022-09-18T10:36:34.123Z,14.50
2022-09-18T10:39:31.188Z,14.50
2022-09-18T10:42:07.221Z,14.80
2022-09-18T10:44:39.998Z,14.80
2022-09-18T10:47:22.677Z,14.70
2022-09-18T10:50:02.788Z,14.50
2022-09-18T10:52:37.763Z,14.30
2022-09-18T10:55:19.022Z,14.10
2022-09-18T10:58:08.347Z,14.00
2022-09-18T11:00:46.783Z,13.80
2022-09-18T11:03:45.667Z,13.80
2022-09-18T11:06:27.100Z,13.80
2022-09-18T11:09:04.996Z,13.90
2022-09-18T11:11:38.820Z,14.00
2022-09-18T11:14:20.828Z,14.00
2022-09-18T11:16:59.349Z,14.00
2022-09-18T11:19:42.316Z,14.00
2022-09-18T11:22:43.220Z,14.10
2022-09-18T11:25:25.116Z,13.90
2022-09-18T11:28:04.939Z,13.90
2022-09-18T11:30:40.987Z,13.90
2022-09-18T11:33:30.555Z,13.90
2022-09-18T11:36:07.268Z,14.10
2022-09-18T11:38:45.459Z,14.40
2022-09-18T11:41:27.100Z,14.70
2022-09-18T11:44:06.643Z,14.60
2022-09-18T11:46:56.610Z,14.60
2022-09-18T11:49:34.213Z,14.40
2022-09-18T11:52:15.377Z,14.60
2022-09-18T11:54:58.077Z,14.80
2022-09-18T11:57:37.030Z,14.90
2022-09-18T12:00:15.056Z,15.10
2022-09-18T12:02:59.904Z,15.40
2022-09-18T12:05:43.813Z,15.40
2022-09-18T12:08:23.260Z,15.40
2022-09-18T12:11:13.083Z,14.90
2022-09-18T12:14:12.838Z,14.70
2022-09-18T12:16:58.008Z,14.50
2022-09-18T12:19:42.819Z,14.40
2022-09-18T12:22:21.800Z,14.30
2022-09-18T12:24:52.551Z,14.10
2022-09-18T12:27:43.168Z,14.20
2022-09-18T12:30:16.750Z,14.30
2022-09-18T12:33:19.297Z,14.50
2022-09-18T12:36:11.199Z,14.60
2022-09-18T12:39:05.161Z,14.80
2022-09-18T12:41:55.990Z,14.70
2022-09-18T12:45:16.080Z,14.70
2022-09-18T12:48:08.385Z,14.70
2022-09-18T12:51:10.196Z,14.80
2022-09-18T12:54:06.226Z,14.70
2022-09-18T12:57:02.369Z,14.80
2022-09-18T12:59:57.069Z,14.70
2022-09-18T13:02:51.872Z,14.60
2022-09-18T13:05:33.342Z,14.80
2022-09-18T13:08:13.039Z,14.90
2022-09-18T13:10:45.374Z,15.00
2022-09-18T13:13:26.823Z,15.10
2022-09-18T13:16:11.596Z,15.10
2022-09-18T13:18:57.647Z,15.00
2022-09-18T13:21:37.487Z,14.80
2022-09-18T13:24:09.425Z,14.60
2022-09-18T13:26:42.851Z,14.50
2022-09-18T13:29:50.249Z,14.30
2022-09-18T13:32:26.616Z,14.30
2022-09-18T13:34:59.808Z,14.30
2022-09-18T13:37:33.087Z,14.20
2022-09-18T13:40:10.848Z,14.20
2022-09-18T13:42:45.711Z,14.20
2022-09-18T13:45:28.583Z,14.20
2022-09-18T13:48:13.009Z,14.30
2022-09-18T13:50:57.107Z,14.60
2022-09-18T13:53:41.747Z,14.60
2022-09-18T13:56:16.991Z,14.50
2022-09-18T13:58:57.386Z,14.40
2022-09-18T14:02:03.128Z,14.60
2022-09-18T14:05:03.588Z,14.60
2022-09-18T14:08:28.367Z,14.40
2022-09-18T14:11:17.239Z,14.30
2022-09-18T14:14:00.738Z,14.10
2022-09-18T14:16:40.835Z,14.00
2022-09-18T14:19:40.355Z,14.00
2022-09-18T14:22:34.418Z,13.90
2022-09-18T14:25:07.223Z,13.80
2022-09-18T14:28:03.321Z,13.60
2022-09-18T14:30:34.442Z,13.50
2022-09-18T14:33:18.074Z,13.50
2022-09-18T14:35:58.621Z,13.40
2022-09-18T14:38:37.919Z,13.40
2022-09-18T14:41:19.332Z,13.20
2022-09-18T14:44:06.223Z,13.10
2022-09-18T14:46:38.709Z,12.80
2022-09-18T14:49:31.229Z,12.50
2022-09-18T14:52:04.421Z,12.40
2022-09-18T14:54:41.068Z,12.30
2022-09-18T14:57:21.659Z,12.10
2022-09-18T14:59:53.655Z,12.00
2022-09-18T15:02:33.454Z,11.70
2022-09-18T15:05:07.751Z,11.50
2022-09-18T15:07:40.207Z,11.50
2022-09-18T15:10:21.280Z,11.50
2022-09-18T15:12:53.821Z,11.60
2022-09-18T15:15:34.370Z,11.70
2022-09-18T15:18:19.429Z,11.70
2022-09-18T15:20:54.918Z,11.70
2022-09-18T15:23:33.848Z,11.70
2022-09-18T15:26:12.992Z,11.80
2022-09-18T15:28:50.712Z,11.90
2022-09-18T15:31:24.564Z,12.10
2022-09-18T15:34:01.322Z,12.20
2022-09-18T15:36:36.298Z,12.20
2022-09-18T15:39:09.726Z,12.20
2022-09-18T15:41:47.994Z,12.20
2022-09-18T15:45:13.948Z,12.10
2022-09-18T15:47:45.056Z,12.10
2022-09-18T15:50:39.816Z,12.20
2022-09-18T15:53:38.520Z,12.20
2022-09-18T15:56:21.962Z,12.20
2022-09-18T15:59:04.098Z,12.20
2022-09-18T16:01:43.220Z,12.40
2022-09-18T16:04:29.700Z,12.50
2022-09-18T16:07:08.414Z,12.50
2022-09-18T16:09:49.710Z,12.50
2022-09-18T16:12:41.156Z,12.40
2022-09-18T16:15:25.581Z,12.30
2022-09-18T16:18:04.759Z,12.30
2022-09-18T16:20:42.339Z,12.30
2022-09-18T16:23:32.836Z,12.30
2022-09-18T16:26:13.835Z,12.30
2022-09-18T16:28:46.896Z,12.30
2022-09-18T16:31:25.301Z,12.30
2022-09-18T16:34:10.935Z,12.20
2022-09-18T16:36:44.835Z,12.10
2022-09-18T16:39:17.411Z,12.10
2022-09-18T16:41:51.123Z,12.20
2022-09-18T16:44:22.172Z,12.00
2022-09-18T16:47:12.542Z,12.00
2022-09-18T16:49:45.875Z,12.00
2022-09-18T16:52:16.659Z,11.90
2022-09-18T16:54:49.281Z,12.00
2022-09-18T16:57:27.737Z,12.00
2022-09-18T17:00:01.091Z,12.10
2022-09-18T17:02:34.705Z,11.90
2022-09-18T17:05:05.227Z,11.90
2022-09-18T17:07:38.321Z,11.80
2022-09-18T17:10:09.999Z,11.90
2022-09-18T17:12:40.046Z,11.90
2022-09-18T17:15:12.107Z,11.90
2022-09-18T17:17:46.019Z,11.80
2022-09-18T17:20:17.877Z,11.70
2022-09-18T17:22:50.679Z,11.70
2022-09-18T17:25:21.764Z,11.60
2022-09-18T17:27:52.799Z,11.50
2022-09-18T17:30:23.033Z,11.60
2022-09-18T17:32:55.815Z,11.60
2022-09-18T17:35:28.529Z,11.70
2022-09-18T17:37:58.651Z,11.70
2022-09-18T17:40:29.545Z,11.60
2022-09-18T17:42:59.703Z,11.60
2022-09-18T17:45:35.711Z,11.60
2022-09-18T17:48:08.651Z,11.60
2022-09-18T17:50:38.730Z,11.50
2022-09-18T17:53:11.253Z,11.50
2022-09-18T17:55:41.275Z,11.60
2022-09-18T17:58:11.508Z,11.50
2022-09-18T18:00:44.453Z,11.50
2022-09-18T18:03:17.446Z,11.50
2022-09-18T18:05:54.850Z,11.50
2022-09-18T18:08:26.399Z,11.50
2022-09-18T18:10:57.272Z,11.50
2022-09-18T18:13:27.631Z,11.40
2022-09-18T18:15:58.489Z,11.40
2022-09-18T18:18:31.272Z,11.40
2022-09-18T18:21:01.536Z,11.50
2022-09-18T18:23:31.647Z,11.80
2022-09-18T18:26:04.764Z,11.70
2022-09-18T18:28:36.374Z,11.30
2022-09-18T18:31:15.276Z,11.10
2022-09-18T18:33:48.098Z,11.00
2022-09-18T18:36:23.110Z,11.00
2022-09-18T18:38:56.023Z,11.10
2022-09-18T18:41:29.087Z,11.00
2022-09-18T18:44:02.270Z,10.70
2022-09-18T18:46:35.798Z,10.70
2022-09-18T18:49:11.752Z,10.60
2022-09-18T18:51:47.783Z,10.60
2022-09-18T18:54:19.964Z,10.60
2022-09-18T18:56:53.643Z,10.60
2022-09-18T18:59:27.040Z,10.70
2022-09-18T19:01:59.341Z,10.70
2022-09-18T19:04:33.094Z,10.60
2022-09-18T19:07:03.220Z,10.40
2022-09-18T19:09:33.740Z,10.30
2022-09-18T19:12:04.005Z,10.30
2022-09-18T19:14:38.058Z,10.30
2022-09-18T19:17:10.017Z,10.30
2022-09-18T19:19:42.982Z,10.30
2022-09-18T19:22:16.586Z,10.20
2022-09-18T19:24:46.818Z,10.20
2022-09-18T19:27:34.699Z,10.00
2022-09-18T19:30:04.905Z,10.00
2022-09-18T19:32:41.031Z,9.90
2022-09-18T19:35:14.134Z,9.90
2022-09-18T19:37:50.873Z,9.90
2022-09-18T19:40:21.410Z,9.80
2022-09-18T19:43:01.638Z,9.80
2022-09-18T19:45:41.808Z,9.80
2022-09-18T19:48:23.985Z,9.80
2022-09-18T19:50:57.130Z,9.90
2022-09-18T19:53:27.867Z,9.90
2022-09-18T19:55:58.403Z,9.80
2022-09-18T19:58:28.764Z,9.80
2022-09-18T20:01:00.462Z,9.80
2022-09-18T20:03:38.079Z,9.70
2022-09-18T20:06:13.993Z,9.70
2022-09-18T20:08:44.141Z,9.70
2022-09-18T20:11:21.743Z,9.50
2022-09-18T20:13:53.628Z,9.50
2022-09-18T20:16:24.160Z,9.40
2022-09-18T20:18:57.575Z,9.30
2022-09-18T20:21:30.970Z,9.20
2022-09-18T20:24:05.020Z,9.20
2022-09-18T20:26:35.198Z,9.10
2022-09-18T20:29:05.796Z,9.10
2022-09-18T20:31:36.088Z,9.10
2022-09-18T20:34:06.545Z,9.00
2022-09-18T20:36:39.657Z,9.00
2022-09-18T20:39:16.279Z,9.00
2022-09-18T20:41:47.777Z,9.10
2022-09-18T20:44:21.965Z,9.20
2022-09-18T20:46:56.852Z,9.30
2022-09-18T20:49:27.406Z,9.30
2022-09-18T20:52:01.107Z,9.30
2022-09-18T20:54:31.489Z,9.30
2022-09-18T20:57:01.672Z,9.40
2022-09-18T20:59:31.812Z,9.50
2022-09-18T21:02:06.692Z,9.60
2022-09-18T21:04:37.324Z,9.50
2022-09-18T21:07:20.186Z,9.60
2022-09-18T21:09:58.070Z,9.70
2022-09-18T21:12:40.842Z,9.70
2022-09-18T21:15:15.340Z,9.60
2022-09-18T21:17:48.522Z,9.40
2022-09-18T21:20:18.886Z,9.30
2022-09-18T21:23:04.273Z,9.30
2022-09-18T21:25:35.012Z,9.30
2022-09-18T21:28:06.080Z,9.20
2022-09-18T21:30:36.120Z,9.10
2022-09-18T21:33:11.078Z,9.10
2022-09-18T21:35:53.004Z,9.10
2022-09-18T21:38:25.742Z,9.10
2022-09-18T21:40:55.827Z,9.10
2022-09-18T21:43:33.082Z,9.00
2022-09-18T21:46:15.251Z,8.90
2022-09-18T21:48:46.307Z,8.90
2022-09-18T21:51:19.084Z,8.90
2022-09-18T21:53:51.967Z,8.90
2022-09-18T21:56:23.644Z,8.90
2022-09-18T21:58:57.698Z,8.80
2022-09-18T22:01:32.139Z,8.90
2022-09-18T22:04:03.174Z,8.90
2022-09-18T22:06:42.123Z,8.80
2022-09-18T22:09:19.155Z,8.90
2022-09-18T22:11:53.635Z,8.90
2022-09-18T22:14:32.303Z,8.90
2022-09-18T22:17:04.311Z,9.00
2022-09-18T22:19:42.408Z,9.00
2022-09-18T22:22:13.657Z,8.90
2022-09-18T22:24:46.324Z,8.90
2022-09-18T22:27:19.489Z,8.90
2022-09-18T22:29:53.662Z,8.90
2022-09-18T22:32:24.079Z,8.90
2022-09-18T22:34:54.591Z,9.00
2022-09-18T22:37:37.113Z,9.10
2022-09-18T22:40:11.531Z,9.00
2022-09-18T22:42:41.660Z,9.00
2022-09-18T22:45:18.053Z,9.00
2022-09-18T22:47:48.119Z,8.90
2022-09-18T22:50:18.547Z,8.90
2022-09-18T22:52:48.605Z,8.90
2022-09-18T22:55:24.966Z,9.00
2022-09-18T22:57:55.007Z,8.90
2022-09-18T23:00:25.146Z,8.90
2022-09-18T23:02:57.804Z,8.90
2022-09-18T23:05:27.921Z,9.00
2022-09-18T23:08:04.717Z,8.90
2022-09-18T23:10:37.464Z,8.90
2022-09-18T23:13:07.850Z,9.00
2022-09-18T23:15:40.025Z,9.00
2022-09-18T23:18:12.430Z,9.00
2022-09-18T23:20:43.099Z,8.90
2022-09-18T23:23:15.768Z,8.90
2022-09-18T23:25:53.000Z,8.90
2022-09-18T23:28:23.097Z,9.10
2022-09-18T23:30:53.168Z,9.00
2022-09-18T23:33:23.242Z,9.00
2022-09-18T23:35:55.970Z,9.00
2022-09-18T23:38:29.039Z,9.00
2022-09-18T23:41:07.430Z,8.90
2022-09-18T23:43:38.476Z,9.00
2022-09-18T23:46:11.791Z,9.00
2022-09-18T23:48:42.030Z,9.00
2022-09-18T23:51:16.130Z,9.10
2022-09-18T23:53:46.143Z,9.00
2022-09-18T23:56:19.694Z,8.90
2022-09-18T23:58:49.875Z,9.00
